Time;durP1;ratioP1;P1;durP2;ratioP2;P2;SDS_P1;SDS_P2;PMS_P1;PMS_P2;Temp;Humidity;BMP_temperature;BMP_pressure;BME280_temperature;BME280_humidity;BME280_pressure;Samples;Min_cycle;Max_cycle;Signal;HPM_P1;HPM_P2
2021/12/18 00:00:03;;;;;;;27.45;16.25;;;102.60;2227.20;;;;;;4861944;29;20042;-80
2021/12/18 00:02:32;;;;;;;28.73;17.98;;;102.70;2227.20;;;;;;4859263;29;20034;-79
2021/12/18 00:04:59;;;;;;;26.15;16.75;;;102.70;2227.20;;;;;;4857340;29;20058;-79
2021/12/18 00:07:29;;;;;;;32.85;15.50;;;102.70;2227.20;;;;;;4860829;29;20517;-80
2021/12/18 00:09:56;;;;;;;32.25;17.05;;;102.70;2227.20;;;;;;4878691;29;20060;-80
2021/12/18 00:12:22;;;;;;;27.83;14.23;;;102.70;2227.20;;;;;;4875367;29;20049;-79
2021/12/18 00:14:50;;;;;;;24.52;14.50;;;102.70;2227.20;;;;;;4856540;29;20081;-79
2021/12/18 00:17:17;;;;;;;23.08;13.82;;;102.70;2227.20;;;;;;4859164;29;20082;-79
2021/12/18 00:19:45;;;;;;;25.13;14.60;;;102.70;2227.20;;;;;;4875713;29;20045;-79
2021/12/18 00:22:13;;;;;;;27.75;13.50;;;102.60;2227.20;;;;;;4907303;29;20060;-79
2021/12/18 00:24:41;;;;;;;23.90;14.30;;;102.70;2227.20;;;;;;4915711;29;20029;-79
2021/12/18 00:27:06;;;;;;;25.50;13.27;;;102.70;2227.20;;;;;;4898828;29;20084;-79
2021/12/18 00:29:35;;;;;;;25.38;15.73;;;102.70;2227.20;;;;;;4903831;29;20037;-79
2021/12/18 00:32:23;;;;;;;25.25;15.52;;;102.70;2227.20;;;;;;4900399;29;20093;-80
2021/12/18 00:35:18;;;;;;;25.05;14.05;;;102.70;2227.20;;;;;;4901545;29;20029;-80
2021/12/18 00:38:04;;;;;;;23.77;14.95;;;102.60;2227.20;;;;;;4869338;29;20041;-80
2021/12/18 00:40:48;;;;;;;25.33;12.88;;;102.70;2227.20;;;;;;4900954;29;20045;-79
2021/12/18 00:43:37;;;;;;;28.50;13.95;;;102.70;2227.20;;;;;;4878961;29;20029;-79
2021/12/18 00:46:04;;;;;;;27.83;14.65;;;102.70;2227.20;;;;;;4895964;29;20068;-80
2021/12/18 00:48:34;;;;;;;27.42;13.05;;;102.70;2227.20;;;;;;4899459;29;20013;-80
2021/12/18 00:50:59;;;;;;;23.45;13.13;;;102.70;2227.20;;;;;;4897648;29;20035;-80
2021/12/18 00:53:25;;;;;;;23.90;13.23;;;102.70;2227.20;;;;;;4910107;29;20029;-78
2021/12/18 00:55:52;;;;;;;22.27;12.80;;;102.70;2227.20;;;;;;4899659;29;20064;-79
2021/12/18 00:58:21;;;;;;;23.05;13.32;;;102.70;2227.20;;;;;;4898812;29;20103;-79
2021/12/18 01:00:52;;;;;;;28.95;13.27;;;102.70;2227.20;;;;;;4911628;29;20036;-79
2021/12/18 01:03:19;;;;;;;24.95;12.65;;;102.70;2227.20;;;;;;4902757;29;20489;-79
2021/12/18 01:05:46;;;;;;;26.38;13.93;;;102.70;2227.20;;;;;;4887450;29;20393;-78
2021/12/18 01:08:12;;;;;;;25.63;14.77;;;102.70;2227.20;;;;;;4889867;29;20113;-79
2021/12/18 01:11:15;;;;;;;23.58;13.05;;;102.70;2227.20;;;;;;4885191;29;20028;-79
2021/12/18 01:23:03;;;;;;;20.55;12.25;;;102.70;2227.20;;;;;;4818984;29;20116;-80
2021/12/18 01:25:38;;;;;;;22.08;14.50;;;102.70;2227.20;;;;;;4825484;29;20017;-80
2021/12/18 01:28:10;;;;;;;25.75;12.77;;;102.70;2227.20;;;;;;4826213;29;20050;-80
2021/12/18 01:30:36;;;;;;;26.67;11.52;;;102.70;2227.20;;;;;;4825260;29;20026;-80
2021/12/18 01:33:28;;;;;;;21.85;12.85;;;102.70;2227.20;;;;;;4810091;29;20046;-79
2021/12/18 01:35:59;;;;;;;24.67;12.38;;;102.70;2227.20;;;;;;4808788;29;20042;-80
2021/12/18 01:38:33;;;;;;;19.80;13.77;;;102.60;2227.20;;;;;;4824303;29;20072;-79
2021/12/18 01:41:02;;;;;;;26.52;14.68;;;102.60;2227.20;;;;;;4822836;29;20061;-79
2021/12/18 01:44:33;;;;;;;23.38;13.65;;;102.60;2227.20;;;;;;4822774;29;20035;-80
2021/12/18 01:46:43;;;;;;;25.13;14.15;;;102.60;2227.20;;;;;;4773902;30;20043;-80
2021/12/18 01:54:25;;;;;;;26.63;14.23;;;102.60;2227.20;;;;;;4833813;29;20482;-78
2021/12/18 01:56:51;;;;;;;27.67;15.25;;;102.60;2227.20;;;;;;4835063;29;20505;-79
2021/12/18 01:59:17;;;;;;;26.70;14.35;;;102.60;2227.20;;;;;;4834824;29;20040;-79
2021/12/18 02:01:42;;;;;;;26.45;14.00;;;102.60;2227.20;;;;;;4835260;29;20106;-79
2021/12/18 02:04:08;;;;;;;29.73;14.50;;;102.60;2227.20;;;;;;4836867;29;20040;-79
2021/12/18 02:06:34;;;;;;;17.77;12.40;;;102.60;2227.20;;;;;;4859292;29;20037;-79
2021/12/18 02:09:00;;;;;;;22.65;13.55;;;102.60;2227.20;;;;;;4856286;29;20397;-79
2021/12/18 02:11:33;;;;;;;23.30;12.40;;;102.70;2227.20;;;;;;4857318;29;20049;-79
2021/12/18 02:21:57;;;;;;;18.95;11.05;;;102.60;2227.20;;;;;;4871477;29;20428;-79
2021/12/18 02:24:25;;;;;;;21.17;12.10;;;102.60;2227.20;;;;;;4907931;29;20108;-79
2021/12/18 02:26:51;;;;;;;21.83;12.85;;;102.60;2227.20;;;;;;4912821;29;20123;-79
2021/12/18 02:29:17;;;;;;;19.10;12.55;;;102.60;2227.20;;;;;;4910578;29;20052;-79
2021/12/18 02:31:45;;;;;;;21.65;13.88;;;102.60;2227.20;;;;;;4914508;29;20039;-79
2021/12/18 02:34:25;;;;;;;17.98;10.45;;;102.60;2227.20;;;;;;4915612;29;20064;-79
2021/12/18 02:36:52;;;;;;;22.60;12.10;;;102.60;2227.20;;;;;;4915060;29;20035;-79
2021/12/18 02:39:24;;;;;;;19.40;11.77;;;102.60;2227.20;;;;;;4912351;29;20122;-79
2021/12/18 02:44:48;;;;;;;22.20;11.30;;;102.60;2227.20;;;;;;4896851;29;20289;-80
2021/12/18 02:47:40;;;;;;;24.25;11.13;;;102.60;2227.20;;;;;;4902009;29;20016;-80
2021/12/18 02:50:21;;;;;;;18.67;10.02;;;102.60;2227.20;;;;;;4902111;29;20037;-80
2021/12/18 02:52:57;;;;;;;17.83;10.13;;;102.60;2227.20;;;;;;4900227;29;20075;-80
2021/12/18 02:55:24;;;;;;;17.83;11.00;;;102.60;2227.20;;;;;;4900215;29;20045;-80
2021/12/18 02:57:54;;;;;;;17.95;10.32;;;102.60;2227.20;;;;;;4885072;29;20049;-80
2021/12/18 03:00:26;;;;;;;22.50;12.05;;;102.60;2227.20;;;;;;4901616;29;20211;-80
2021/12/18 03:02:58;;;;;;;25.60;11.77;;;102.60;2227.20;;;;;;4898733;29;20177;-80
2021/12/18 03:05:35;;;;;;;21.10;10.50;;;102.60;2227.20;;;;;;4899037;29;20426;-80
2021/12/18 03:08:11;;;;;;;25.75;10.95;;;102.60;2227.20;;;;;;4887870;29;20041;-79
2021/12/18 03:27:59;;;;;;;16.65;10.10;;;102.70;2227.20;;;;;;4866551;29;20121;-80
2021/12/18 03:30:40;;;;;;;18.38;10.18;;;102.70;2227.20;;;;;;4864939;29;20068;-80
2021/12/18 03:33:31;;;;;;;20.83;11.80;;;102.70;2227.20;;;;;;4851360;29;20030;-80
2021/12/18 03:36:04;;;;;;;16.95;10.73;;;102.70;2227.20;;;;;;4864529;29;20042;-80
2021/12/18 03:48:34;;;;;;;20.00;11.38;;;102.70;2227.20;;;;;;4848167;29;20041;-81
2021/12/18 03:51:55;;;;;;;19.13;10.60;;;102.70;2227.20;;;;;;4808125;29;20035;-80
2021/12/18 03:58:32;;;;;;;13.90;8.88;;;102.70;2227.20;;;;;;4765472;30;20101;-80
2021/12/18 04:01:54;;;;;;;18.38;10.15;;;102.70;2227.20;;;;;;4775500;30;20066;-81
2021/12/18 04:04:27;;;;;;;14.80;9.10;;;102.70;2227.20;;;;;;4731253;30;20093;-80
2021/12/18 04:07:49;;;;;;;16.58;9.35;;;102.70;2227.20;;;;;;4725849;30;20060;-80
2021/12/18 04:10:22;;;;;;;13.13;8.77;;;102.70;2227.20;;;;;;4696720;30;20029;-79
2021/12/18 04:12:59;;;;;;;17.30;11.52;;;102.70;2227.20;;;;;;4721392;30;20025;-80
2021/12/18 04:15:42;;;;;;;20.17;10.27;;;102.70;2227.20;;;;;;4729063;30;20044;-79
2021/12/18 04:19:22;;;;;;;17.33;8.88;;;102.70;2227.20;;;;;;4677056;30;20110;-80
2021/12/18 04:22:26;;;;;;;19.92;9.70;;;102.70;2227.20;;;;;;4670791;30;20047;-80
2021/12/18 06:11:37;;;;;;;14.63;9.05;;;102.50;2227.20;;;;;;515049;27;20354;-81
2021/12/18 06:14:11;;;;;;;15.43;8.30;;;102.50;2227.20;;;;;;4893976;29;20127;-80
2021/12/18 06:16:40;;;;;;;14.68;9.18;;;102.60;2227.20;;;;;;4914327;29;20091;-80
2021/12/18 06:22:25;;;;;;;17.05;8.18;;;102.60;2227.20;;;;;;4859513;29;20048;-81
2021/12/18 06:24:53;;;;;;;13.85;7.63;;;102.60;2227.20;;;;;;4879484;29;20052;-81
2021/12/18 06:27:26;;;;;;;15.00;8.35;;;102.60;2227.20;;;;;;4892854;29;20212;-80
2021/12/18 06:29:55;;;;;;;13.43;7.80;;;102.60;2227.20;;;;;;4892200;29;20037;-80
2021/12/18 06:32:21;;;;;;;18.00;8.52;;;102.50;2227.20;;;;;;4859368;29;20044;-79
2021/12/18 06:34:47;;;;;;;13.98;7.35;;;102.50;2227.20;;;;;;4884888;29;20053;-79
2021/12/18 06:37:12;;;;;;;19.95;9.27;;;102.50;2227.20;;;;;;4868428;29;20093;-79
2021/12/18 06:39:38;;;;;;;13.13;7.60;;;102.40;2227.20;;;;;;4874228;29;20619;-79
2021/12/18 06:42:04;;;;;;;15.48;9.23;;;102.40;2227.20;;;;;;4887053;29;20049;-79
2021/12/18 06:44:31;;;;;;;17.70;8.35;;;102.40;2227.20;;;;;;4885391;29;20029;-79
2021/12/18 06:47:00;;;;;;;13.15;8.45;;;102.40;2227.20;;;;;;4888835;29;20045;-79
2021/12/18 06:49:29;;;;;;;13.18;7.55;;;102.40;2227.20;;;;;;4894312;29;20041;-79
2021/12/18 06:51:55;;;;;;;14.05;7.28;;;102.40;2227.20;;;;;;4878626;29;20039;-80
2021/12/18 06:54:22;;;;;;;15.20;8.50;;;102.40;2227.20;;;;;;4883848;29;20060;-81
2021/12/18 06:57:04;;;;;;;15.43;9.70;;;102.40;2227.20;;;;;;4902121;29;20025;-82
2021/12/18 06:59:54;;;;;;;11.63;6.88;;;102.40;2227.20;;;;;;4901912;29;20389;-81
2021/12/18 07:02:45;;;;;;;11.05;7.22;;;102.40;2227.20;;;;;;4891040;29;20025;-80
2021/12/18 07:05:11;;;;;;;17.13;8.00;;;102.40;2227.20;;;;;;4861845;29;20037;-80
2021/12/18 07:07:39;;;;;;;17.35;8.23;;;102.50;2227.20;;;;;;4879024;29;20105;-81
2021/12/18 07:10:11;;;;;;;12.80;8.20;;;102.50;2227.20;;;;;;4865968;29;20124;-80
2021/12/18 07:12:38;;;;;;;14.68;8.10;;;102.50;2227.20;;;;;;4883498;29;20053;-80
2021/12/18 07:15:06;;;;;;;14.27;8.15;;;102.80;2227.20;;;;;;4886024;29;20133;-80
2021/12/18 07:17:37;;;;;;;14.88;7.03;;;102.60;2227.20;;;;;;4908611;29;20032;-80
2021/12/18 07:20:05;;;;;;;12.82;8.05;;;102.60;2227.20;;;;;;4874192;29;20077;-80
2021/12/18 07:22:58;;;;;;;12.13;7.78;;;102.60;2227.20;;;;;;4901566;29;20029;-80
2021/12/18 07:25:33;;;;;;;14.02;7.18;;;102.60;2227.20;;;;;;4906279;29;20044;-80
2021/12/18 07:28:04;;;;;;;13.05;7.13;;;102.60;2227.20;;;;;;4905644;29;20034;-80
2021/12/18 07:30:40;;;;;;;17.20;10.55;;;102.60;2227.20;;;;;;4914054;29;20036;-80
2021/12/18 07:33:11;;;;;;;16.27;9.18;;;102.70;2227.20;;;;;;4917289;29;20019;-81
2021/12/18 07:35:43;;;;;;;16.23;10.68;;;102.90;2227.20;;;;;;4921774;29;20040;-80
2021/12/18 07:38:11;;;;;;;16.42;9.60;;;102.80;2227.20;;;;;;4926091;29;20048;-80
2021/12/18 07:40:40;;;;;;;16.50;9.68;;;102.80;2227.20;;;;;;4921957;29;20016;-81
2021/12/18 07:43:08;;;;;;;13.77;8.00;;;102.90;2227.20;;;;;;4937191;29;20032;-80
2021/12/18 07:45:35;;;;;;;14.15;7.85;;;102.90;2227.20;;;;;;4926884;29;20503;-80
2021/12/18 07:48:51;;;;;;;13.38;7.05;;;103.00;2227.20;;;;;;4926001;29;20036;-80
2021/12/18 07:55:48;;;;;;;19.65;9.57;;;103.10;2227.20;;;;;;4800481;29;20137;-81
2021/12/18 08:09:20;;;;;;;19.42;11.95;;;103.30;2227.20;;;;;;4741380;30;20032;-81
2021/12/18 08:35:03;;;;;;;13.52;6.85;;;128.20;2252.80;;;;;;5341359;23;20060;-81
2021/12/18 09:04:00;;;;;;;8.13;4.85;;;153.60;2252.80;;;;;;515728;27;20331;-79
2021/12/18 11:49:42;;;;;;;6.03;4.03;;;231.30;2252.80;;;;;;4889981;29;20504;-87
2021/12/18 11:52:08;;;;;;;8.10;3.30;;;231.30;2252.80;;;;;;4885717;29;20047;-85
2021/12/18 11:54:49;;;;;;;11.43;5.25;;;230.90;2252.80;;;;;;4875212;29;20029;-86
2021/12/18 11:57:50;;;;;;;9.07;4.35;;;230.60;2252.80;;;;;;4871576;29;20071;-84
2021/12/18 12:00:15;;;;;;;8.40;3.45;;;205.70;2252.80;;;;;;4871868;29;20400;-85
2021/12/18 12:02:47;;;;;;;7.43;3.70;;;205.40;2252.80;;;;;;4881985;29;20017;-85
2021/12/18 12:05:15;;;;;;;18.23;4.95;;;205.20;2252.80;;;;;;4874194;29;20039;-82
2021/12/18 12:07:43;;;;;;;6.10;2.63;;;205.20;2252.80;;;;;;4872892;29;20040;-82
2021/12/18 12:10:49;;;;;;;9.70;4.25;;;205.00;2252.80;;;;;;4901528;29;20024;-84
2021/12/18 12:13:15;;;;;;;13.02;4.82;;;204.80;2252.80;;;;;;4881716;29;20037;-85
2021/12/18 12:16:00;;;;;;;6.45;3.22;;;204.80;2252.80;;;;;;4897089;29;20104;-85
2021/12/18 12:21:56;;;;;;;10.25;3.60;;;230.90;2252.80;;;;;;4888416;29;20445;-88
2021/12/18 12:24:28;;;;;;;9.23;4.88;;;231.10;2252.80;;;;;;4879167;29;20021;-85
2021/12/18 12:27:14;;;;;;;8.18;4.05;;;256.00;2252.80;;;;;;4867393;29;20028;-89
2021/12/18 12:29:49;;;;;;;5.78;3.17;;;256.30;2252.80;;;;;;4875748;29;20059;-89
2021/12/18 12:32:16;;;;;;;8.60;4.80;;;231.20;2252.80;;;;;;4878713;29;20033;-88
2021/12/18 12:34:44;;;;;;;9.85;4.90;;;230.80;2252.80;;;;;;4873229;29;20033;-87
2021/12/18 12:37:42;;;;;;;6.18;3.30;;;230.60;2252.80;;;;;;4882341;29;20060;-86
2021/12/18 12:40:20;;;;;;;5.75;3.92;;;205.50;2252.80;;;;;;4887808;29;20037;-86
2021/12/18 16:37:05;;;;;;;80.13;45.78;;;128.50;2252.80;;;;;;4843801;27;20053;-81
2021/12/18 16:40:04;;;;;;;71.63;44.50;;;128.50;2252.80;;;;;;4918184;29;20051;-80
2021/12/18 16:42:35;;;;;;;74.82;45.70;;;128.50;2252.80;;;;;;4862484;29;20034;-78
2021/12/18 16:45:06;;;;;;;89.47;51.45;;;128.50;2252.80;;;;;;4847534;29;20046;-79
2021/12/18 16:47:34;;;;;;;87.35;50.15;;;128.50;2252.80;;;;;;4859860;29;20128;-78
2021/12/18 16:50:38;;;;;;;96.40;54.55;;;128.40;2252.80;;;;;;4855714;29;20121;-80
2021/12/18 16:53:30;;;;;;;82.20;48.80;;;128.30;2252.80;;;;;;4806027;29;20043;-79
2021/12/18 16:56:26;;;;;;;156.95;83.85;;;128.30;2252.80;;;;;;4819791;29;20123;-79
2021/12/18 16:59:24;;;;;;;145.30;76.50;;;128.20;2252.80;;;;;;4802469;29;20524;-79
2021/12/18 17:03:00;;;;;;;106.22;58.13;;;128.10;2252.80;;;;;;4741965;30;20041;-79
2021/12/18 17:06:07;;;;;;;75.38;43.47;;;128.10;2252.80;;;;;;4666934;30;20103;-80
2021/12/18 17:08:35;;;;;;;68.40;42.25;;;128.10;2252.80;;;;;;4633590;31;20049;-79
2021/12/18 17:11:02;;;;;;;64.47;36.15;;;128.10;2252.80;;;;;;4634629;31;20059;-78
2021/12/18 17:13:29;;;;;;;70.47;43.72;;;128.40;2252.80;;;;;;4646405;30;20046;-78
2021/12/18 17:16:00;;;;;;;64.68;40.67;;;128.10;2252.80;;;;;;4660477;30;20480;-78
2021/12/18 17:18:40;;;;;;;71.40;40.92;;;128.20;2252.80;;;;;;4662967;30;20124;-78
2021/12/18 17:23:42;;;;;;;67.17;42.47;;;128.10;2252.80;;;;;;1261733;27;20104;-79
2021/12/18 17:26:13;;;;;;;78.65;45.38;;;128.10;2252.80;;;;;;4893990;29;20037;-78
2021/12/18 17:28:41;;;;;;;71.80;41.72;;;128.00;2252.80;;;;;;4893317;29;20400;-78
2021/12/18 17:31:08;;;;;;;89.28;50.30;;;103.30;2227.20;;;;;;4890696;29;20025;-78
2021/12/18 17:33:34;;;;;;;78.10;45.58;;;103.30;2227.20;;;;;;4888963;29;20107;-78
2021/12/18 17:36:00;;;;;;;79.15;46.85;;;103.20;2227.20;;;;;;4894898;29;20025;-78
2021/12/18 17:38:28;;;;;;;97.10;55.35;;;103.10;2227.20;;;;;;4890799;29;20572;-76
2021/12/18 17:40:57;;;;;;;96.70;55.35;;;103.10;2227.20;;;;;;4894113;29;20053;-79
2021/12/18 17:43:26;;;;;;;90.05;52.45;;;103.10;2227.20;;;;;;4896325;29;20033;-79
2021/12/18 17:45:57;;;;;;;89.60;53.17;;;103.10;2227.20;;;;;;4891405;29;20033;-79
2021/12/18 17:48:22;;;;;;;90.97;52.35;;;103.10;2227.20;;;;;;4893071;29;20064;-79
2021/12/18 17:50:51;;;;;;;84.60;49.88;;;103.00;2227.20;;;;;;4889122;29;20044;-78
2021/12/18 17:53:18;;;;;;;88.35;47.53;;;103.00;2227.20;;;;;;4889192;29;20025;-78
2021/12/18 17:55:58;;;;;;;79.88;48.03;;;102.90;2227.20;;;;;;4888598;29;20045;-79
2021/12/18 17:59:10;;;;;;;82.90;49.33;;;102.90;2227.20;;;;;;4890240;29;20049;-78
2021/12/18 18:01:56;;;;;;;72.57;42.72;;;103.00;2227.20;;;;;;4848233;29;20465;-78
2021/12/18 18:04:25;;;;;;;77.45;42.10;;;102.90;2227.20;;;;;;4847244;29;20045;-78
2021/12/18 18:06:51;;;;;;;80.88;42.97;;;102.90;2227.20;;;;;;4846399;29;20066;-78
2021/12/18 18:09:18;;;;;;;64.90;38.45;;;103.00;2227.20;;;;;;4856767;29;20038;-79
2021/12/18 18:11:46;;;;;;;71.15;39.80;;;103.00;2227.20;;;;;;4841541;29;20110;-81
2021/12/18 18:14:19;;;;;;;58.55;33.47;;;103.00;2227.20;;;;;;4858476;29;20029;-79
2021/12/18 18:16:47;;;;;;;73.78;40.55;;;103.00;2227.20;;;;;;4828797;29;20094;-78
2021/12/18 18:19:13;;;;;;;63.60;34.38;;;103.00;2227.20;;;;;;4818177;29;20065;-78
2021/12/18 18:21:39;;;;;;;65.45;35.28;;;103.10;2227.20;;;;;;4835159;29;20147;-79
2021/12/18 18:24:06;;;;;;;64.32;38.13;;;103.00;2227.20;;;;;;4834910;29;20055;-78
2021/12/18 18:26:31;;;;;;;52.17;30.52;;;103.10;2227.20;;;;;;4817805;29;20486;-78
2021/12/18 18:29:00;;;;;;;61.22;32.85;;;102.90;2227.20;;;;;;4836979;29;20105;-77
2021/12/18 18:31:26;;;;;;;58.55;35.65;;;102.90;2227.20;;;;;;4831429;29;20041;-78
2021/12/18 18:33:52;;;;;;;72.32;39.25;;;102.90;2227.20;;;;;;4830311;29;20034;-78
2021/12/18 18:36:18;;;;;;;68.60;38.30;;;103.00;2227.20;;;;;;4848684;29;20101;-78
2021/12/18 18:38:46;;;;;;;60.17;35.53;;;103.10;2227.20;;;;;;4848138;29;20065;-78
2021/12/18 18:41:12;;;;;;;65.32;37.67;;;103.00;2227.20;;;;;;4831477;29;20038;-78
2021/12/18 18:43:42;;;;;;;66.88;39.88;;;102.90;2227.20;;;;;;4833954;29;20082;-78
2021/12/18 18:46:21;;;;;;;103.78;62.03;;;102.80;2227.20;;;;;;4845811;29;20089;-78
2021/12/18 18:48:49;;;;;;;123.85;74.25;;;102.90;2227.20;;;;;;4847018;29;20038;-78
2021/12/18 18:51:16;;;;;;;128.27;75.70;;;102.90;2227.20;;;;;;4850070;29;20034;-78
2021/12/18 18:53:43;;;;;;;117.65;70.15;;;102.80;2227.20;;;;;;4835557;29;20046;-78
2021/12/18 18:56:10;;;;;;;97.10;57.38;;;102.90;2227.20;;;;;;4837547;29;20048;-78
2021/12/18 18:58:37;;;;;;;113.15;61.90;;;102.90;2227.20;;;;;;4869326;29;20105;-78
2021/12/18 19:01:11;;;;;;;118.18;67.25;;;103.00;2227.20;;;;;;4901100;29;20017;-79
2021/12/18 19:03:43;;;;;;;112.30;63.22;;;102.90;2227.20;;;;;;4887397;29;20061;-78
2021/12/18 19:06:26;;;;;;;100.53;57.33;;;102.90;2227.20;;;;;;4912052;29;20092;-79
2021/12/18 19:09:01;;;;;;;104.55;60.10;;;102.80;2227.20;;;;;;4922827;29;20017;-79
2021/12/18 19:11:55;;;;;;;114.20;63.38;;;102.80;2227.20;;;;;;4924454;29;20093;-79
2021/12/18 19:14:43;;;;;;;135.43;76.60;;;102.70;2227.20;;;;;;4923679;29;20036;-79
2021/12/18 19:17:10;;;;;;;80.03;45.60;;;102.60;2227.20;;;;;;4919349;29;20076;-78
2021/12/18 19:19:52;;;;;;;108.45;54.10;;;102.50;2227.20;;;;;;4921380;29;20017;-79
2021/12/18 19:22:24;;;;;;;112.93;52.00;;;102.50;2227.20;;;;;;4922608;29;20048;-80
2021/12/18 19:25:08;;;;;;;78.45;41.47;;;77.70;2227.20;;;;;;4919620;29;20052;-79
2021/12/18 19:27:41;;;;;;;85.68;44.22;;;102.40;2227.20;;;;;;4897728;29;20052;-78
2021/12/18 19:30:15;;;;;;;84.50;40.70;;;102.40;2227.20;;;;;;4900603;29;20037;-78
2021/12/18 19:32:42;;;;;;;93.43;42.00;;;77.70;2227.20;;;;;;4899274;29;20049;-78
2021/12/18 19:35:11;;;;;;;101.45;47.03;;;77.70;2227.20;;;;;;4896774;29;20035;-78
2021/12/18 19:37:43;;;;;;;96.55;48.97;;;77.60;2227.20;;;;;;4894974;29;20025;-79
2021/12/18 19:40:11;;;;;;;139.68;72.80;;;77.60;2227.20;;;;;;4888754;29;20036;-78
2021/12/18 19:42:38;;;;;;;118.38;62.53;;;77.70;2227.20;;;;;;4892846;29;20077;-78
2021/12/18 19:45:08;;;;;;;136.57;65.00;;;77.60;2227.20;;;;;;4892221;29;20389;-78
2021/12/18 19:47:37;;;;;;;127.43;62.13;;;77.70;2227.20;;;;;;4896382;29;20028;-79
2021/12/18 19:50:20;;;;;;;117.28;55.30;;;77.70;2227.20;;;;;;4899201;29;20040;-78
2021/12/18 19:52:48;;;;;;;115.47;55.15;;;77.60;2227.20;;;;;;4896453;29;20037;-78
2021/12/18 19:55:13;;;;;;;89.13;44.97;;;77.60;2227.20;;;;;;4897934;29;20033;-78
2021/12/18 19:57:41;;;;;;;66.05;37.30;;;77.50;2227.20;;;;;;4897813;29;20040;-79
2021/12/18 20:00:13;;;;;;;92.70;47.30;;;77.50;2227.20;;;;;;4894995;29;20033;-78
2021/12/18 20:05:38;;;;;;;116.22;60.90;;;77.50;2227.20;;;;;;4836942;29;20061;-78
2021/12/18 20:08:06;;;;;;;122.47;65.22;;;77.50;2227.20;;;;;;4833751;29;20121;-78
2021/12/18 20:10:33;;;;;;;132.13;67.38;;;77.50;2227.20;;;;;;4827817;29;20054;-79
2021/12/18 20:13:06;;;;;;;104.22;57.60;;;77.50;2227.20;;;;;;4858209;29;20029;-78
2021/12/18 20:15:33;;;;;;;77.18;43.45;;;77.50;2227.20;;;;;;4854206;29;20049;-78
2021/12/18 20:18:02;;;;;;;72.35;44.00;;;77.50;2227.20;;;;;;4841631;29;20034;-78
2021/12/18 20:20:31;;;;;;;81.97;49.28;;;77.50;2227.20;;;;;;4848085;29;20524;-79
2021/12/18 20:23:02;;;;;;;79.65;46.10;;;77.50;2227.20;;;;;;4842550;29;20038;-78
2021/12/18 20:25:29;;;;;;;95.40;57.45;;;77.50;2227.20;;;;;;4847675;29;20046;-79
2021/12/18 20:27:56;;;;;;;140.50;79.30;;;77.50;2227.20;;;;;;4832523;29;20037;-78
2021/12/18 20:30:26;;;;;;;128.93;71.97;;;77.60;2227.20;;;;;;4821156;29;20057;-79
2021/12/18 20:32:54;;;;;;;89.85;51.58;;;77.60;2227.20;;;;;;4853259;29;20038;-78
2021/12/18 20:35:21;;;;;;;75.07;42.72;;;77.60;2227.20;;;;;;4852758;29;20052;-78
2021/12/18 20:37:51;;;;;;;74.72;42.63;;;77.60;2227.20;;;;;;4854135;29;20038;-78
2021/12/18 20:40:23;;;;;;;75.90;41.63;;;77.60;2227.20;;;;;;4850439;29;20425;-79
2021/12/18 20:42:52;;;;;;;80.65;43.35;;;77.70;2227.20;;;;;;4879957;29;20045;-78
2021/12/18 20:45:25;;;;;;;69.82;37.92;;;77.70;2227.20;;;;;;4890135;29;20029;-79
2021/12/18 20:47:53;;;;;;;67.75;35.20;;;77.70;2227.20;;;;;;4894328;29;20029;-79
2021/12/18 20:50:25;;;;;;;65.13;36.03;;;77.70;2227.20;;;;;;4881061;29;20695;-79
2021/12/18 20:52:53;;;;;;;64.57;34.45;;;102.40;2227.20;;;;;;4888685;29;20037;-78
2021/12/18 20:55:21;;;;;;;70.18;38.97;;;102.40;2227.20;;;;;;4892239;29;20033;-79
2021/12/18 20:57:47;;;;;;;65.60;36.03;;;102.40;2227.20;;;;;;4891374;29;20048;-79
2021/12/18 21:00:26;;;;;;;66.40;35.33;;;102.40;2227.20;;;;;;4887519;29;20033;-78
2021/12/18 21:02:52;;;;;;;65.20;33.20;;;102.40;2227.20;;;;;;4887014;29;20051;-78
2021/12/18 21:05:18;;;;;;;58.00;32.80;;;102.40;2227.20;;;;;;4887875;29;20025;-78
2021/12/18 21:07:55;;;;;;;56.38;33.00;;;102.40;2227.20;;;;;;4881019;29;20033;-78
2021/12/18 21:10:24;;;;;;;64.72;34.88;;;102.40;2227.20;;;;;;4884491;29;20068;-78
2021/12/18 21:12:50;;;;;;;53.47;33.35;;;102.40;2227.20;;;;;;4890129;29;20433;-78
2021/12/18 21:15:17;;;;;;;58.95;36.13;;;102.40;2227.20;;;;;;4886411;29;20029;-78
2021/12/18 21:17:46;;;;;;;67.78;35.15;;;77.70;2227.20;;;;;;4889159;29;20040;-78
2021/12/18 21:20:20;;;;;;;72.28;39.50;;;77.70;2227.20;;;;;;4889033;29;20092;-78
2021/12/18 21:22:48;;;;;;;67.00;35.75;;;77.70;2227.20;;;;;;4889889;29;20061;-78
2021/12/18 21:25:14;;;;;;;63.88;37.25;;;77.70;2227.20;;;;;;4888019;29;20097;-78
2021/12/18 21:27:40;;;;;;;61.03;35.03;;;102.50;2227.20;;;;;;4890157;29;20085;-78
2021/12/18 21:30:09;;;;;;;50.55;31.45;;;102.40;2227.20;;;;;;4892151;29;20033;-78
2021/12/18 21:32:35;;;;;;;70.57;34.20;;;102.40;2227.20;;;;;;4904151;29;20531;-78
2021/12/18 21:37:33;;;;;;;63.75;34.28;;;102.40;2227.20;;;;;;4909077;29;20086;-78
2021/12/18 21:39:59;;;;;;;60.05;32.42;;;77.70;2227.20;;;;;;4908891;29;20036;-78
2021/12/18 21:42:25;;;;;;;54.13;30.90;;;102.40;2227.20;;;;;;4911943;29;20025;-79
2021/12/18 21:44:52;;;;;;;53.22;31.30;;;77.70;2227.20;;;;;;4908505;29;20039;-78
2021/12/18 21:47:21;;;;;;;48.22;29.70;;;77.70;2227.20;;;;;;4908284;29;20093;-78
2021/12/18 21:49:52;;;;;;;48.17;28.38;;;102.40;2227.20;;;;;;4913366;29;20041;-80
2021/12/18 21:52:28;;;;;;;56.55;31.10;;;102.40;2227.20;;;;;;4897944;29;20116;-80
2021/12/18 21:54:56;;;;;;;55.35;31.27;;;102.40;2227.20;;;;;;4878425;29;20089;-79
2021/12/18 21:57:26;;;;;;;50.78;28.98;;;102.40;2227.20;;;;;;4876008;29;20052;-79
2021/12/18 22:00:00;;;;;;;45.00;28.02;;;102.50;2227.20;;;;;;4874933;29;20045;-78
2021/12/18 22:02:30;;;;;;;58.58;33.80;;;102.50;2227.20;;;;;;4878865;29;20025;-79
2021/12/18 22:04:59;;;;;;;62.03;33.97;;;102.50;2227.20;;;;;;4876086;29;20025;-79
2021/12/18 22:07:25;;;;;;;57.83;34.22;;;102.50;2227.20;;;;;;4879041;29;20043;-79
2021/12/18 22:10:09;;;;;;;59.92;31.88;;;102.60;2227.20;;;;;;4896167;29;20072;-79
2021/12/18 22:12:40;;;;;;;49.60;29.85;;;102.40;2227.20;;;;;;4898586;29;20033;-79
2021/12/18 22:16:05;;;;;;;47.63;29.70;;;102.50;2227.20;;;;;;4881166;29;20062;-79
2021/12/18 22:18:34;;;;;;;43.40;25.35;;;102.50;2227.20;;;;;;4883692;29;20049;-80
2021/12/18 22:21:06;;;;;;;50.78;31.30;;;102.40;2227.20;;;;;;4882104;29;20017;-80
2021/12/18 22:24:03;;;;;;;54.78;31.30;;;102.40;2227.20;;;;;;4880822;29;20030;-79
2021/12/18 22:26:41;;;;;;;51.03;27.83;;;102.40;2227.20;;;;;;4852608;29;20042;-81
2021/12/18 22:29:31;;;;;;;39.03;24.67;;;102.40;2227.20;;;;;;4831758;29;20026;-79
2021/12/18 22:31:58;;;;;;;44.92;24.40;;;102.50;2227.20;;;;;;4870999;29;20076;-79
2021/12/18 22:34:38;;;;;;;41.60;23.80;;;102.50;2227.20;;;;;;4881271;29;20033;-79
2021/12/18 22:37:25;;;;;;;42.85;24.10;;;102.60;2227.20;;;;;;4882886;29;20026;-79
2021/12/18 22:40:09;;;;;;;48.47;26.25;;;102.60;2227.20;;;;;;4902456;29;20032;-80
2021/12/18 22:42:54;;;;;;;41.47;23.98;;;102.60;2227.20;;;;;;4896180;29;20033;-79
2021/12/18 22:45:23;;;;;;;36.40;23.92;;;102.60;2227.20;;;;;;4899582;29;20036;-79
2021/12/18 22:48:01;;;;;;;42.67;23.02;;;102.70;2227.20;;;;;;4901784;29;20055;-79
2021/12/18 22:50:53;;;;;;;45.22;25.13;;;102.70;2227.20;;;;;;4901839;29;20033;-80
2021/12/18 22:53:26;;;;;;;36.88;22.98;;;102.70;2227.20;;;;;;4902255;29;20088;-80
2021/12/18 22:56:04;;;;;;;36.53;21.95;;;102.70;2227.20;;;;;;4898747;29;20041;-79
2021/12/18 22:58:55;;;;;;;48.00;21.35;;;102.70;2227.20;;;;;;4867003;29;20045;-79
2021/12/18 23:01:34;;;;;;;39.95;23.23;;;102.80;2227.20;;;;;;4863420;29;20038;-80
2021/12/18 23:04:10;;;;;;;36.22;22.08;;;102.80;2227.20;;;;;;4838610;29;20124;-78
2021/12/18 23:06:40;;;;;;;40.28;23.50;;;102.80;2227.20;;;;;;4871030;29;20066;-79
2021/12/18 23:09:30;;;;;;;41.72;21.85;;;102.60;2227.20;;;;;;4845734;29;20037;-79
2021/12/18 23:48:33;;;;;;;38.50;22.90;;;102.70;2227.20;;;;;;4877079;29;20157;-78
2021/12/18 23:51:00;;;;;;;42.92;22.90;;;102.60;2227.20;;;;;;4878534;29;20050;-78